createdAt,value
2022-08-08T00:00:55.092Z,24.10
2022-08-08T00:02:42.981Z,24.00
2022-08-08T00:05:43.883Z,24.00
2022-08-08T00:08:29.289Z,24.00
2022-08-08T00:11:01.983Z,24.00
2022-08-08T00:14:17.502Z,24.00
2022-08-08T00:16:48.313Z,24.00
2022-08-08T00:19:22.728Z,24.00
2022-08-08T00:22:02.280Z,23.90
2022-08-08T00:24:42.464Z,23.90
2022-08-08T00:27:12.081Z,23.90
2022-08-08T00:30:11.415Z,23.90
2022-08-08T00:32:47.725Z,23.90
2022-08-08T00:35:51.015Z,23.90
2022-08-08T00:38:44.448Z,23.90
2022-08-08T00:41:54.975Z,23.90
2022-08-08T00:44:35.642Z,23.90
2022-08-08T00:47:36.674Z,23.90
2022-08-08T00:50:35.995Z,23.90
2022-08-08T00:53:57.030Z,23.90
2022-08-08T00:56:51.159Z,23.90
2022-08-08T00:59:43.024Z,23.90
2022-08-08T01:03:15.404Z,23.80
2022-08-08T01:05:58.550Z,23.90
2022-08-08T01:08:38.448Z,23.90
2022-08-08T01:11:51.999Z,23.90
2022-08-08T01:14:57.463Z,23.80
2022-08-08T01:18:50.663Z,23.90
2022-08-08T01:22:01.706Z,23.80
2022-08-08T01:24:37.442Z,23.90
2022-08-08T01:27:33.039Z,23.80
2022-08-08T01:30:45.840Z,23.80
2022-08-08T01:33:53.863Z,23.80
2022-08-08T01:36:50.785Z,23.80
2022-08-08T01:40:14.662Z,23.80
2022-08-08T01:42:50.747Z,23.80
2022-08-08T01:45:56.470Z,23.80
2022-08-08T01:48:53.735Z,23.80
2022-08-08T01:52:28.086Z,23.80
2022-08-08T01:55:26.984Z,23.70
2022-08-08T01:58:04.561Z,23.80
2022-08-08T02:01:17.431Z,23.70
2022-08-08T02:04:02.425Z,23.70
2022-08-08T02:06:59.109Z,23.70
2022-08-08T02:10:03.444Z,23.70
2022-08-08T02:13:00.245Z,23.80
2022-08-08T02:15:58.759Z,23.70
2022-08-08T02:18:31.303Z,23.70
2022-08-08T02:21:23.873Z,23.70
2022-08-08T02:24:16.591Z,23.70
2022-08-08T02:27:03.678Z,23.70
2022-08-08T02:30:03.953Z,23.70
2022-08-08T02:32:57.793Z,23.60
2022-08-08T02:36:03.828Z,23.60
2022-08-08T02:38:50.675Z,23.60
2022-08-08T02:41:59.543Z,23.60
2022-08-08T02:44:36.932Z,23.60
2022-08-08T02:47:19.250Z,23.60
2022-08-08T02:50:18.341Z,23.50
2022-08-08T02:53:07.960Z,23.60
2022-08-08T02:56:01.480Z,23.60
2022-08-08T02:58:47.730Z,23.50
2022-08-08T03:01:47.398Z,23.50
2022-08-08T03:05:02.701Z,23.50
2022-08-08T03:08:09.042Z,23.50
2022-08-08T03:11:47.961Z,23.50
2022-08-08T03:16:00.048Z,23.50
2022-08-08T03:17:38.161Z,23.50
2022-08-08T03:20:10.234Z,23.50
2022-08-08T03:22:56.313Z,23.50
2022-08-08T03:25:35.982Z,23.50
2022-08-08T03:28:12.709Z,23.50
2022-08-08T03:30:42.613Z,23.50
2022-08-08T03:33:56.003Z,24.20
2022-08-08T03:36:10.310Z,23.40
2022-08-08T03:38:53.874Z,23.40
2022-08-08T03:42:28.151Z,23.40
2022-08-08T03:44:25.733Z,23.40
2022-08-08T03:46:52.995Z,23.30
2022-08-08T03:49:57.285Z,23.40
2022-08-08T03:52:13.815Z,23.40
2022-08-08T03:55:02.628Z,23.40
2022-08-08T03:58:30.462Z,23.40
2022-08-08T04:00:22.281Z,23.40
2022-08-08T04:03:11.228Z,23.40
2022-08-08T04:05:39.860Z,23.40
2022-08-08T04:08:32.995Z,23.30
2022-08-08T04:11:03.194Z,23.30
2022-08-08T04:14:04.440Z,23.30
2022-08-08T04:16:38.364Z,23.30
2022-08-08T04:19:25.160Z,23.30
2022-08-08T04:21:54.160Z,23.30
2022-08-08T04:24:30.558Z,23.30
2022-08-08T04:26:59.396Z,23.30
2022-08-08T04:29:27.443Z,23.30
2022-08-08T04:32:00.654Z,23.30
2022-08-08T04:34:29.055Z,23.20
2022-08-08T04:36:59.369Z,23.20
2022-08-08T04:40:03.404Z,23.20
2022-08-08T04:42:15.839Z,23.30
2022-08-08T04:44:47.830Z,23.30
2022-08-08T04:47:14.989Z,23.30
2022-08-08T04:50:01.420Z,23.20
2022-08-08T04:52:33.627Z,23.20
2022-08-08T04:55:01.784Z,23.20
2022-08-08T04:57:28.919Z,23.30
2022-08-08T04:59:58.068Z,23.20
2022-08-08T05:02:28.834Z,23.20
2022-08-08T05:04:59.350Z,23.20
2022-08-08T05:07:33.081Z,23.20
2022-08-08T05:10:08.719Z,23.30
2022-08-08T05:12:42.890Z,23.30
2022-08-08T05:15:26.465Z,23.30
2022-08-08T05:18:13.184Z,23.30
2022-08-08T05:20:50.437Z,23.20
2022-08-08T05:23:20.588Z,23.20
2022-08-08T05:25:48.853Z,23.20
2022-08-08T05:28:16.465Z,23.20
2022-08-08T05:31:19.383Z,23.30
2022-08-08T05:33:50.578Z,23.30
2022-08-08T05:36:25.465Z,23.20
2022-08-08T05:38:57.545Z,23.20
2022-08-08T05:41:25.947Z,23.30
2022-08-08T05:44:12.313Z,23.30
2022-08-08T05:46:41.562Z,23.20
2022-08-08T05:49:16.374Z,23.20
2022-08-08T05:51:49.174Z,23.30
2022-08-08T05:54:42.743Z,23.30
2022-08-08T05:57:07.181Z,23.30
2022-08-08T05:59:58.878Z,23.30
2022-08-08T06:02:44.091Z,23.30
2022-08-08T06:05:34.610Z,23.30
2022-08-08T06:08:09.636Z,22.60
2022-08-08T06:10:39.285Z,21.80
2022-08-08T06:13:10.178Z,21.60
2022-08-08T06:15:50.602Z,21.60
2022-08-08T06:18:22.453Z,21.60
2022-08-08T06:20:55.475Z,21.60
2022-08-08T06:23:49.019Z,21.30
2022-08-08T06:26:38.245Z,21.20
2022-08-08T06:29:10.562Z,21.30
2022-08-08T06:32:10.361Z,21.20
2022-08-08T06:34:52.411Z,21.10
2022-08-08T06:37:37.978Z,21.30
2022-08-08T06:40:14.323Z,21.40
2022-08-08T06:42:53.575Z,21.30
2022-08-08T06:45:24.063Z,21.20
2022-08-08T06:47:58.370Z,21.50
2022-08-08T06:50:32.008Z,21.50
2022-08-08T06:53:13.841Z,21.50
2022-08-08T06:55:47.103Z,21.60
2022-08-08T06:58:14.374Z,21.70
2022-08-08T07:00:46.328Z,21.60
2022-08-08T07:03:52.494Z,21.70
2022-08-08T07:06:22.285Z,21.70
2022-08-08T07:09:01.747Z,21.80
2022-08-08T07:11:30.527Z,22.00
2022-08-08T07:14:21.222Z,21.90
2022-08-08T07:17:14.349Z,22.10
2022-08-08T07:19:56.061Z,22.00
2022-08-08T07:22:45.796Z,22.00
2022-08-08T07:25:17.415Z,22.20
2022-08-08T07:28:02.616Z,22.30
2022-08-08T07:30:35.452Z,22.50
2022-08-08T07:33:02.303Z,22.50
2022-08-08T07:35:30.982Z,22.60
2022-08-08T07:38:10.565Z,22.70
2022-08-08T07:40:46.944Z,22.80
2022-08-08T07:43:14.473Z,22.80
2022-08-08T07:46:05.442Z,22.80
2022-08-08T07:48:30.321Z,22.80
2022-08-08T07:51:00.678Z,22.90
2022-08-08T07:54:02.775Z,22.90
2022-08-08T07:56:37.935Z,23.00
2022-08-08T07:59:14.424Z,23.00
2022-08-08T08:02:35.823Z,23.00
2022-08-08T08:04:49.041Z,23.00
2022-08-08T08:07:17.048Z,23.10
2022-08-08T08:09:44.162Z,23.10
2022-08-08T08:12:30.190Z,23.20
2022-08-08T08:15:05.729Z,23.20
2022-08-08T08:17:44.218Z,23.20
2022-08-08T08:20:18.791Z,23.30
2022-08-08T08:22:47.496Z,23.30
2022-08-08T08:25:16.888Z,23.20
2022-08-08T08:27:46.527Z,23.20
2022-08-08T08:30:14.426Z,23.20
2022-08-08T08:32:51.202Z,23.20
2022-08-08T08:35:21.765Z,23.20
2022-08-08T08:38:15.844Z,23.20
2022-08-08T08:40:44.064Z,23.20
2022-08-08T08:43:18.770Z,23.20
2022-08-08T08:45:47.973Z,23.30
2022-08-08T08:48:19.270Z,23.30
2022-08-08T08:50:52.071Z,23.30
2022-08-08T08:53:27.608Z,23.40
2022-08-08T08:56:07.887Z,23.30
2022-08-08T08:58:42.235Z,23.40
2022-08-08T09:01:16.314Z,23.40
2022-08-08T09:03:51.143Z,23.50
2022-08-08T09:06:31.906Z,23.40
2022-08-08T09:09:19.292Z,23.40
2022-08-08T09:12:07.594Z,23.50
2022-08-08T09:14:35.312Z,23.40
2022-08-08T09:17:09.844Z,23.50
2022-08-08T09:21:57.180Z,23.50
2022-08-08T09:22:28.091Z,23.60
2022-08-08T09:24:56.752Z,23.50
2022-08-08T09:27:56.166Z,23.60
2022-08-08T09:30:17.510Z,23.60
2022-08-08T09:33:12.552Z,23.60
2022-08-08T09:35:48.728Z,23.70
2022-08-08T09:38:32.075Z,23.80
2022-08-08T09:41:06.079Z,23.90
2022-08-08T09:44:06.453Z,23.90
2022-08-08T09:46:31.117Z,23.90
2022-08-08T09:49:04.367Z,24.00
2022-08-08T09:52:06.698Z,24.00
2022-08-08T09:54:44.734Z,24.00
2022-08-08T09:57:17.252Z,24.00
2022-08-08T10:00:02.336Z,24.10
2022-08-08T10:02:36.988Z,24.00
2022-08-08T10:05:22.955Z,24.10
2022-08-08T10:07:52.036Z,24.10
2022-08-08T10:10:30.461Z,24.20
2022-08-08T10:13:19.212Z,24.10
2022-08-08T10:15:59.031Z,24.20
2022-08-08T10:18:36.915Z,24.20
2022-08-08T10:21:23.227Z,24.20
2022-08-08T10:23:58.442Z,24.30
2022-08-08T10:26:57.146Z,24.30
2022-08-08T10:29:56.960Z,24.30
2022-08-08T10:32:40.063Z,24.30
2022-08-08T10:36:01.843Z,24.20
2022-08-08T10:38:08.030Z,24.30
2022-08-08T10:40:38.503Z,24.30
2022-08-08T10:43:06.749Z,24.30
2022-08-08T10:45:57.296Z,24.30
2022-08-08T10:48:58.401Z,24.40
2022-08-08T10:51:31.241Z,24.40
2022-08-08T10:54:08.010Z,24.20
2022-08-08T10:56:35.687Z,24.20
2022-08-08T10:59:14.244Z,24.10
2022-08-08T11:01:49.207Z,24.10
2022-08-08T11:04:17.167Z,24.10
2022-08-08T11:07:00.701Z,24.10
2022-08-08T11:09:27.667Z,24.20
2022-08-08T11:12:06.439Z,24.10
2022-08-08T11:14:56.853Z,24.10
2022-08-08T11:18:00.509Z,24.10
2022-08-08T11:20:25.027Z,24.10
2022-08-08T11:22:59.785Z,24.10
2022-08-08T11:25:52.053Z,24.10
2022-08-08T11:28:29.649Z,24.00
2022-08-08T11:31:00.571Z,24.10
2022-08-08T11:33:51.715Z,24.10
2022-08-08T11:36:15.879Z,24.10
2022-08-08T11:38:55.297Z,24.00
2022-08-08T11:41:24.932Z,24.00
2022-08-08T11:43:57.978Z,24.00
2022-08-08T11:46:26.685Z,24.00
2022-08-08T11:48:55.643Z,24.00
2022-08-08T11:51:37.959Z,24.00
2022-08-08T11:54:09.690Z,24.00
2022-08-08T11:56:56.541Z,24.00
2022-08-08T11:59:57.667Z,24.00
2022-08-08T12:02:38.525Z,24.00
2022-08-08T12:05:12.198Z,24.00
2022-08-08T12:07:51.461Z,24.00
2022-08-08T12:10:30.142Z,24.00
2022-08-08T12:13:09.773Z,24.00
2022-08-08T12:15:48.024Z,24.00
2022-08-08T12:18:24.713Z,24.00
2022-08-08T12:20:54.304Z,24.00
2022-08-08T12:23:42.932Z,24.00
2022-08-08T12:26:28.009Z,24.00
2022-08-08T12:29:22.477Z,24.10
2022-08-08T12:32:20.808Z,24.10
2022-08-08T12:35:13.591Z,24.10
2022-08-08T12:38:01.141Z,24.10
2022-08-08T12:40:54.482Z,24.10
2022-08-08T12:43:47.872Z,24.10
2022-08-08T12:46:28.903Z,24.10
2022-08-08T12:49:25.433Z,24.10
2022-08-08T12:51:49.781Z,24.10
2022-08-08T12:54:25.712Z,24.10
2022-08-08T12:56:53.413Z,24.20
2022-08-08T12:59:36.571Z,24.20
2022-08-08T13:02:29.215Z,24.20
2022-08-08T13:05:01.783Z,24.20
2022-08-08T13:08:03.603Z,24.30
2022-08-08T13:10:32.800Z,24.20
2022-08-08T13:13:05.970Z,24.20
2022-08-08T13:15:35.843Z,24.20
2022-08-08T13:18:10.146Z,24.10
2022-08-08T13:20:48.286Z,24.10
2022-08-08T13:23:41.369Z,24.10
2022-08-08T13:26:14.922Z,24.10
2022-08-08T13:28:45.966Z,24.10
2022-08-08T13:31:16.586Z,24.10
2022-08-08T13:33:49.980Z,24.10
2022-08-08T13:36:18.165Z,24.10
2022-08-08T13:38:53.194Z,24.10
2022-08-08T13:41:20.018Z,24.10
2022-08-08T13:43:50.758Z,24.10
2022-08-08T13:46:26.318Z,24.10
2022-08-08T13:50:33.264Z,24.10
2022-08-08T13:52:04.360Z,24.20
2022-08-08T13:54:33.409Z,24.20
2022-08-08T13:57:04.792Z,24.20
2022-08-08T13:59:48.343Z,24.20
2022-08-08T14:02:31.305Z,24.20
2022-08-08T14:05:09.585Z,24.20
2022-08-08T14:07:51.783Z,24.30
2022-08-08T14:10:33.761Z,24.30
2022-08-08T14:13:20.751Z,24.30
2022-08-08T14:16:02.840Z,24.30
2022-08-08T14:18:36.745Z,24.30
2022-08-08T14:21:20.506Z,24.30
2022-08-08T14:24:03.834Z,24.30
2022-08-08T14:26:46.169Z,24.20
2022-08-08T14:29:28.389Z,24.20
2022-08-08T14:32:08.974Z,24.20
2022-08-08T14:34:43.478Z,24.20
2022-08-08T14:37:16.233Z,24.20
2022-08-08T14:39:53.936Z,24.20
2022-08-08T14:42:31.745Z,24.10
2022-08-08T14:45:10.405Z,24.20
2022-08-08T14:48:00.440Z,24.30
2022-08-08T14:50:37.905Z,24.30
2022-08-08T14:53:13.402Z,24.30
2022-08-08T14:55:42.427Z,24.30
2022-08-08T14:58:11.448Z,24.30
2022-08-08T15:00:43.166Z,24.30
2022-08-08T15:03:15.951Z,24.30
2022-08-08T15:05:53.273Z,24.30
2022-08-08T15:08:34.986Z,24.30
2022-08-08T15:11:09.320Z,24.30
2022-08-08T15:14:01.995Z,24.30
2022-08-08T15:16:28.044Z,24.30
2022-08-08T15:18:57.377Z,24.30
2022-08-08T15:21:27.785Z,24.30
2022-08-08T15:23:57.377Z,24.30
2022-08-08T15:26:25.462Z,24.30
2022-08-08T15:28:54.126Z,24.30
2022-08-08T15:31:26.034Z,24.30
2022-08-08T15:34:28.876Z,24.30
2022-08-08T15:36:56.015Z,24.30
2022-08-08T15:39:22.845Z,24.40
2022-08-08T15:41:49.616Z,24.40
2022-08-08T15:44:18.006Z,24.40
2022-08-08T15:46:45.746Z,24.30
2022-08-08T15:49:17.781Z,24.40
2022-08-08T15:51:49.794Z,24.40
2022-08-08T15:54:37.709Z,24.40
2022-08-08T15:57:04.271Z,24.40
2022-08-08T16:00:25.648Z,24.30
2022-08-08T16:02:21.833Z,24.30
2022-08-08T16:04:59.267Z,24.30
2022-08-08T16:07:50.935Z,24.30
2022-08-08T16:13:12.267Z,24.30
2022-08-08T16:13:28.124Z,24.30
2022-08-08T16:15:59.415Z,24.30
2022-08-08T16:18:30.358Z,24.30
2022-08-08T16:21:00.225Z,24.20
2022-08-08T16:23:28.281Z,24.30
2022-08-08T16:26:03.832Z,24.20
2022-08-08T16:28:35.275Z,24.20
2022-08-08T16:31:07.761Z,24.30
2022-08-08T16:33:38.981Z,24.30
2022-08-08T16:36:12.997Z,24.20
2022-08-08T16:38:47.284Z,24.20
2022-08-08T16:41:18.688Z,24.20
2022-08-08T16:43:50.958Z,24.20
2022-08-08T16:46:43.337Z,24.20
2022-08-08T16:49:08.075Z,24.20
2022-08-08T16:55:06.928Z,24.20
2022-08-08T16:55:07.215Z,24.20
2022-08-08T16:57:27.943Z,24.20
2022-08-08T17:00:06.270Z,24.20
2022-08-08T17:02:39.473Z,24.20
2022-08-08T17:05:08.215Z,24.20
2022-08-08T17:10:08.911Z,24.30
2022-08-08T17:12:36.435Z,24.30
2022-08-08T17:15:18.028Z,24.30
2022-08-08T17:18:03.620Z,24.30
2022-08-08T17:20:40.009Z,24.20
2022-08-08T17:23:25.868Z,24.20
2022-08-08T17:25:55.175Z,24.20
2022-08-08T17:28:34.657Z,24.30
2022-08-08T17:31:15.110Z,24.40
2022-08-08T17:34:49.591Z,24.30
2022-08-08T17:36:37.291Z,24.30
2022-08-08T17:39:46.066Z,24.30
2022-08-08T17:42:02.508Z,24.20
2022-08-08T17:44:29.847Z,24.30
2022-08-08T17:46:58.129Z,24.20
2022-08-08T17:49:28.467Z,24.30
2022-08-08T17:52:05.540Z,24.30
2022-08-08T17:54:33.949Z,24.30
2022-08-08T17:57:02.564Z,24.30
2022-08-08T17:59:34.648Z,24.30
2022-08-08T18:02:04.019Z,24.20
2022-08-08T18:04:36.677Z,24.20
2022-08-08T18:08:02.607Z,24.30
2022-08-08T18:10:02.734Z,24.20
2022-08-08T18:12:29.391Z,24.20
2022-08-08T18:14:56.011Z,24.20
2022-08-08T18:20:43.881Z,24.10
2022-08-08T18:22:59.987Z,24.10
2022-08-08T18:25:26.653Z,24.10
2022-08-08T18:28:04.203Z,24.10
2022-08-08T18:30:31.073Z,24.10
2022-08-08T18:32:58.791Z,24.10
2022-08-08T18:35:34.235Z,24.10
2022-08-08T18:38:17.053Z,24.10
2022-08-08T18:40:46.332Z,24.10
2022-08-08T18:43:14.935Z,24.10
2022-08-08T18:46:52.352Z,24.10
2022-08-08T18:48:30.675Z,24.00
2022-08-08T18:50:58.375Z,24.00
2022-08-08T18:53:25.807Z,24.00
2022-08-08T18:56:32.106Z,24.00
2022-08-08T18:58:59.727Z,23.90
2022-08-08T19:02:25.771Z,24.00
2022-08-08T19:04:16.469Z,24.00
2022-08-08T19:06:47.069Z,24.00
2022-08-08T19:09:16.361Z,24.00
2022-08-08T19:11:46.666Z,24.00
2022-08-08T19:14:20.596Z,24.00
2022-08-08T19:16:48.265Z,24.00
2022-08-08T19:19:15.818Z,24.00
2022-08-08T19:21:48.743Z,24.00
2022-08-08T19:24:42.325Z,24.00
2022-08-08T19:27:04.603Z,24.00
2022-08-08T19:29:34.534Z,24.00
2022-08-08T19:32:02.569Z,24.00
2022-08-08T19:34:41.367Z,24.00
2022-08-08T19:37:16.338Z,24.00
2022-08-08T19:39:45.541Z,24.00
2022-08-08T19:42:13.628Z,24.00
2022-08-08T19:44:45.520Z,24.00
2022-08-08T19:47:14.251Z,24.00
2022-08-08T19:49:43.459Z,24.00
2022-08-08T19:52:34.405Z,24.00
2022-08-08T19:55:12.643Z,24.00
2022-08-08T19:57:44.335Z,24.00
2022-08-08T20:00:29.222Z,24.00
2022-08-08T20:02:59.913Z,24.00
2022-08-08T20:06:13.664Z,24.00
2022-08-08T20:08:30.863Z,24.00
2022-08-08T20:10:59.933Z,24.00
2022-08-08T20:14:32.042Z,24.00
2022-08-08T20:16:18.053Z,24.00
2022-08-08T20:18:52.799Z,24.00
2022-08-08T20:21:25.018Z,24.00
2022-08-08T20:23:58.176Z,24.00
2022-08-08T20:26:27.646Z,24.00
2022-08-08T20:28:57.865Z,24.00
2022-08-08T20:31:46.916Z,24.00
2022-08-08T20:34:28.765Z,24.00
2022-08-08T20:36:59.390Z,24.00
2022-08-08T20:39:33.768Z,24.00
2022-08-08T20:42:08.944Z,24.00
2022-08-08T20:44:37.566Z,24.10
2022-08-08T20:47:05.275Z,24.10
2022-08-08T20:49:46.808Z,24.20
2022-08-08T20:52:14.074Z,24.20
2022-08-08T20:54:42.366Z,24.30
2022-08-08T20:57:19.138Z,24.30
2022-08-08T20:59:48.373Z,24.20
2022-08-08T21:02:19.694Z,24.20
2022-08-08T21:04:52.777Z,24.10
2022-08-08T21:07:46.869Z,24.10
2022-08-08T21:10:12.503Z,24.10
2022-08-08T21:12:41.461Z,24.10
2022-08-08T21:15:16.673Z,23.90
2022-08-08T21:17:59.229Z,24.20
2022-08-08T21:20:34.154Z,23.90
2022-08-08T21:23:02.181Z,24.10
2022-08-08T21:25:29.452Z,24.00
2022-08-08T21:28:09.743Z,24.10
2022-08-08T21:30:45.236Z,24.00
2022-08-08T21:33:18.775Z,23.90
2022-08-08T21:38:32.974Z,24.10
2022-08-08T21:40:59.625Z,24.00
2022-08-08T21:43:30.918Z,24.00
2022-08-08T21:48:02.494Z,24.20
2022-08-08T21:51:45.937Z,24.20
2022-08-08T21:54:33.970Z,24.10
2022-08-08T21:56:54.893Z,23.80
2022-08-08T21:59:22.922Z,23.80
2022-08-08T22:01:52.252Z,24.10
2022-08-08T22:04:22.322Z,23.90
2022-08-08T22:06:51.788Z,23.80
2022-08-08T22:09:18.966Z,23.90
2022-08-08T22:12:03.106Z,23.90
2022-08-08T22:14:31.669Z,23.80
2022-08-08T22:17:00.956Z,23.80
2022-08-08T22:19:29.799Z,24.00
2022-08-08T22:24:28.305Z,23.90
2022-08-08T22:27:02.145Z,23.90
2022-08-08T22:29:59.523Z,23.80
2022-08-08T22:32:19.041Z,23.80
2022-08-08T22:34:50.465Z,23.80
2022-08-08T22:37:49.106Z,23.90
2022-08-08T22:40:07.554Z,24.00
2022-08-08T22:42:40.128Z,23.90
2022-08-08T22:45:12.426Z,24.10
2022-08-08T22:47:41.305Z,23.80
2022-08-08T22:50:27.227Z,23.80
2022-08-08T22:54:31.590Z,24.00
2022-08-08T22:55:59.230Z,23.80
2022-08-08T22:58:33.978Z,23.70
2022-08-08T23:01:26.873Z,23.80
2022-08-08T23:03:54.230Z,24.00
2022-08-08T23:06:22.608Z,23.90
2022-08-08T23:08:55.113Z,23.90
2022-08-08T23:11:31.162Z,23.90
2022-08-08T23:14:11.361Z,23.90
2022-08-08T23:16:43.937Z,23.80
2022-08-08T23:19:12.938Z,23.80
2022-08-08T23:21:42.266Z,24.00
2022-08-08T23:24:09.294Z,23.90
2022-08-08T23:26:35.977Z,23.60
2022-08-08T23:29:10.836Z,23.80
2022-08-08T23:36:47.510Z,23.80
2022-08-08T23:41:49.361Z,23.90
2022-08-08T23:44:18.634Z,23.70
2022-08-08T23:49:00.918Z,23.80
2022-08-08T23:49:33.747Z,23.80
2022-08-08T23:54:42.275Z,23.70
2022-08-08T23:57:26.907Z,24.00
